createdAt,value
2018-02-16T00:00:00.633Z,5.41
2018-02-16T00:00:26.764Z,5.38
2018-02-16T00:00:52.861Z,5.35
2018-02-16T00:01:18.967Z,5.29
2018-02-16T00:01:45.064Z,5.26
2018-02-16T00:02:11.166Z,5.29
2018-02-16T00:02:37.267Z,5.29
2018-02-16T00:03:03.379Z,5.3
2018-02-16T00:03:29.485Z,5.26
2018-02-16T00:03:55.589Z,5.15
2018-02-16T00:04:21.685Z,5.29
2018-02-16T00:04:47.783Z,5.23
2018-02-16T00:05:13.883Z,5.21
2018-02-16T00:05:39.983Z,5.11
2018-02-16T00:06:06.088Z,5.26
2018-02-16T00:06:32.185Z,5.28
2018-02-16T00:06:58.283Z,5.39
2018-02-16T00:07:24.383Z,5.39
2018-02-16T00:07:50.482Z,5.43
2018-02-16T00:08:16.584Z,5.5
2018-02-16T00:08:42.740Z,5.57
2018-02-16T00:09:08.810Z,5.56
2018-02-16T00:09:34.911Z,5.53
2018-02-16T00:10:01.011Z,5.51
2018-02-16T00:10:27.113Z,5.53
2018-02-16T00:10:53.212Z,5.57
2018-02-16T00:11:19.321Z,5.43
2018-02-16T00:11:45.412Z,5.38
2018-02-16T00:12:11.512Z,5.39
2018-02-16T00:12:37.615Z,5.39
2018-02-16T00:13:03.744Z,5.46
2018-02-16T00:13:29.846Z,5.41
2018-02-16T00:13:55.952Z,5.46
2018-02-16T00:14:22.053Z,5.38
2018-02-16T00:14:48.152Z,5.36
2018-02-16T00:15:14.254Z,5.3
2018-02-16T00:15:40.365Z,5.29
2018-02-16T00:16:06.483Z,5.12
2018-02-16T00:16:32.582Z,5.15
2018-02-16T00:16:58.676Z,4.99
2018-02-16T00:17:24.788Z,5.07
2018-02-16T00:17:50.899Z,5.12
2018-02-16T00:18:16.994Z,5.15
2018-02-16T00:18:43.100Z,5.05
2018-02-16T00:19:09.201Z,5.08
2018-02-16T00:19:35.300Z,4.96
2018-02-16T00:20:01.406Z,5
2018-02-16T00:20:27.500Z,5.05
2018-02-16T00:20:53.596Z,4.9
2018-02-16T00:21:19.700Z,4.9
2018-02-16T00:21:45.833Z,4.92
2018-02-16T00:22:11.987Z,4.84
2018-02-16T00:22:38.091Z,4.77
2018-02-16T00:23:04.187Z,4.55
2018-02-16T00:23:30.290Z,4.53
2018-02-16T00:23:56.440Z,4.5
2018-02-16T00:24:22.518Z,4.53
2018-02-16T00:24:48.634Z,4.5
2018-02-16T00:25:15.323Z,4.48
2018-02-16T00:25:41.715Z,4.4
2018-02-16T00:26:07.977Z,4.42
2018-02-16T00:26:34.085Z,4.37
2018-02-16T00:27:00.181Z,4.34
2018-02-16T00:27:26.277Z,4.42
2018-02-16T00:27:52.375Z,4.4
2018-02-16T00:28:18.480Z,4.35
2018-02-16T00:28:44.583Z,4.35
2018-02-16T00:29:10.677Z,4.44
2018-02-16T00:29:36.780Z,4.52
2018-02-16T00:30:02.876Z,4.5
2018-02-16T00:30:28.978Z,4.53
2018-02-16T00:30:55.077Z,4.56
2018-02-16T00:31:21.185Z,4.5
2018-02-16T00:31:47.278Z,4.48
2018-02-16T00:32:13.377Z,4.49
2018-02-16T00:32:39.475Z,4.4
2018-02-16T00:33:05.580Z,4.42
2018-02-16T00:33:31.693Z,4.42
2018-02-16T00:33:57.799Z,4.3
2018-02-16T00:34:23.902Z,4.28
2018-02-16T00:34:50.002Z,4.32
2018-02-16T00:35:16.093Z,4.32
2018-02-16T00:35:42.195Z,4.4
2018-02-16T00:36:08.292Z,4.34
2018-02-16T00:36:34.391Z,4.3
2018-02-16T00:37:00.490Z,4.35
2018-02-16T00:37:26.585Z,4.23
2018-02-16T00:37:52.688Z,4.3
2018-02-16T00:38:18.790Z,4.26
2018-02-16T00:38:44.881Z,4.28
2018-02-16T00:39:10.978Z,4.24
2018-02-16T00:39:37.080Z,4.35
2018-02-16T00:40:03.182Z,4.4
2018-02-16T00:40:29.279Z,4.31
2018-02-16T00:40:55.387Z,4.22
2018-02-16T00:41:21.493Z,4.24
2018-02-16T00:41:47.593Z,4.22
2018-02-16T00:42:13.692Z,4.19
2018-02-16T00:42:39.814Z,4.19
2018-02-16T00:43:05.910Z,4.28
2018-02-16T00:43:32.008Z,4.38
2018-02-16T00:43:58.113Z,4.24
2018-02-16T00:44:24.220Z,4.34
2018-02-16T00:44:50.330Z,4.35
2018-02-16T00:45:16.427Z,4.2
2018-02-16T00:45:42.531Z,4.12
2018-02-16T00:46:08.633Z,4.16
2018-02-16T00:46:34.728Z,4.17
2018-02-16T00:47:00.825Z,4.24
2018-02-16T00:47:26.927Z,4.19
2018-02-16T00:47:53.027Z,4.17
2018-02-16T00:48:19.122Z,4.22
2018-02-16T00:48:45.220Z,4.26
2018-02-16T00:49:11.342Z,4.28
2018-02-16T00:49:37.461Z,4.24
2018-02-16T00:50:03.554Z,4.3
2018-02-16T00:50:29.652Z,4.24
2018-02-16T00:50:55.755Z,4.19
2018-02-16T00:51:21.853Z,4.35
2018-02-16T00:51:47.954Z,4.22
2018-02-16T00:52:14.052Z,4.13
2018-02-16T00:52:40.157Z,4.16
2018-02-16T00:53:06.258Z,4.28
2018-02-16T00:53:32.355Z,4.28
2018-02-16T00:53:58.454Z,4.2
2018-02-16T00:54:24.558Z,4.35
2018-02-16T00:54:50.655Z,4.31
2018-02-16T00:55:16.754Z,4.37
2018-02-16T00:55:42.857Z,4.37
2018-02-16T00:56:08.961Z,4.32
2018-02-16T00:56:35.061Z,4.32
2018-02-16T00:57:01.157Z,4.45
2018-02-16T00:57:27.257Z,4.32
2018-02-16T00:57:53.350Z,4.4
2018-02-16T00:58:19.452Z,4.34
2018-02-16T00:58:45.549Z,4.37
2018-02-16T00:59:11.656Z,4.24
2018-02-16T00:59:37.751Z,4.19
2018-02-16T01:00:03.857Z,4.22
2018-02-16T01:00:29.960Z,4.22
2018-02-16T01:00:56.051Z,4.37
2018-02-16T01:01:22.153Z,4.4
2018-02-16T01:01:48.253Z,4.38
2018-02-16T01:02:14.350Z,4.42
2018-02-16T01:02:40.472Z,4.38
2018-02-16T01:03:06.565Z,4.45
2018-02-16T01:03:32.668Z,4.38
2018-02-16T01:03:58.763Z,4.31
2018-02-16T01:04:24.861Z,4.38
2018-02-16T01:04:50.964Z,4.48
2018-02-16T01:05:17.060Z,4.34
2018-02-16T01:05:43.164Z,4.38
2018-02-16T01:06:09.259Z,4.28
2018-02-16T01:06:35.360Z,4.38
2018-02-16T01:07:01.455Z,4.4
2018-02-16T01:07:27.578Z,4.48
2018-02-16T01:07:53.677Z,4.41
2018-02-16T01:08:19.814Z,4.37
2018-02-16T01:08:45.875Z,4.3
2018-02-16T01:09:11.979Z,4.37
2018-02-16T01:09:38.077Z,4.28
2018-02-16T01:10:04.169Z,4.22
2018-02-16T01:10:30.292Z,4.24
2018-02-16T01:10:56.392Z,4.24
2018-02-16T01:11:22.498Z,4.28
2018-02-16T01:11:48.599Z,4.24
2018-02-16T01:12:14.692Z,4.37
2018-02-16T01:12:40.796Z,4.3
2018-02-16T01:13:06.886Z,4.22
2018-02-16T01:13:32.989Z,4.34
2018-02-16T01:13:59.085Z,4.4
2018-02-16T01:14:25.191Z,4.4
2018-02-16T01:14:51.293Z,4.31
2018-02-16T01:15:17.409Z,4.35
2018-02-16T01:15:43.505Z,4.44
2018-02-16T01:16:09.607Z,4.37
2018-02-16T01:16:35.705Z,4.34
2018-02-16T01:17:01.802Z,4.32
2018-02-16T01:17:27.906Z,4.37
2018-02-16T01:17:54.005Z,4.42
2018-02-16T01:18:20.097Z,4.32
2018-02-16T01:18:46.216Z,4.32
2018-02-16T01:19:12.316Z,4.32
2018-02-16T01:19:38.413Z,4.4
2018-02-16T01:20:04.517Z,4.41
2018-02-16T01:20:30.616Z,4.42
2018-02-16T01:20:56.710Z,4.38
2018-02-16T01:21:22.811Z,4.28
2018-02-16T01:21:48.911Z,4.26
2018-02-16T01:22:15.014Z,4.23
2018-02-16T01:22:41.115Z,4.35
2018-02-16T01:23:07.218Z,4.19
2018-02-16T01:23:33.316Z,4.38
2018-02-16T01:23:59.416Z,4.31
2018-02-16T01:24:25.521Z,4.35
2018-02-16T01:24:51.615Z,4.35
2018-02-16T01:25:17.712Z,4.44
2018-02-16T01:25:43.816Z,4.38
2018-02-16T01:26:09.912Z,4.34
2018-02-16T01:26:36.012Z,4.42
2018-02-16T01:27:02.108Z,4.35
2018-02-16T01:27:28.206Z,4.38
2018-02-16T01:27:54.305Z,4.41
2018-02-16T01:28:20.404Z,4.44
2018-02-16T01:28:46.509Z,4.31
2018-02-16T01:29:12.606Z,4.32
2018-02-16T01:29:38.712Z,4.34
2018-02-16T01:30:04.806Z,4.42
2018-02-16T01:30:30.906Z,4.42
2018-02-16T01:30:57.005Z,4.2
2018-02-16T01:31:23.104Z,4.3
2018-02-16T01:31:49.208Z,4.32
2018-02-16T01:32:15.303Z,4.2
2018-02-16T01:32:41.408Z,4.3
2018-02-16T01:33:07.504Z,4.23
2018-02-16T01:33:33.610Z,4.34
2018-02-16T01:33:59.712Z,4.24
2018-02-16T01:34:25.814Z,4.19
2018-02-16T01:34:51.908Z,4.16
2018-02-16T01:35:18.006Z,4.3
2018-02-16T01:35:44.109Z,4.2
2018-02-16T01:36:10.214Z,4.24
2018-02-16T01:36:36.302Z,4.23
2018-02-16T01:37:02.405Z,4.22
2018-02-16T01:37:28.500Z,4.31
2018-02-16T01:37:54.594Z,4.24
2018-02-16T01:38:20.698Z,4.26
2018-02-16T01:38:46.795Z,4.23
2018-02-16T01:39:12.908Z,4.2
2018-02-16T01:39:39.012Z,4.23
2018-02-16T01:40:05.120Z,4.32
2018-02-16T01:40:31.226Z,4.26
2018-02-16T01:40:57.323Z,4.3
2018-02-16T01:41:23.427Z,4.26
2018-02-16T01:41:49.545Z,4.17
2018-02-16T01:42:15.648Z,4.35
2018-02-16T01:42:41.762Z,4.26
2018-02-16T01:43:07.860Z,4.41
2018-02-16T01:43:33.960Z,4.26
2018-02-16T01:44:00.054Z,4.37
2018-02-16T01:44:26.151Z,4.24
2018-02-16T01:44:52.254Z,4.32
2018-02-16T01:45:18.349Z,4.28
2018-02-16T01:45:44.454Z,4.3
2018-02-16T01:46:10.546Z,4.2
2018-02-16T01:46:36.668Z,4.2
2018-02-16T01:47:02.779Z,4.42
2018-02-16T01:47:28.880Z,4.38
2018-02-16T01:47:54.984Z,4.37
2018-02-16T01:48:21.075Z,4.35
2018-02-16T01:48:47.180Z,4.48
2018-02-16T01:49:13.275Z,4.31
2018-02-16T01:49:39.410Z,4.34
2018-02-16T01:50:05.508Z,4.4
2018-02-16T01:50:31.602Z,4.35
2018-02-16T01:50:57.707Z,4.3
2018-02-16T01:51:23.806Z,4.42
2018-02-16T01:51:49.901Z,4.28
2018-02-16T01:52:16.011Z,4.32
2018-02-16T01:52:42.119Z,4.4
2018-02-16T01:53:08.220Z,4.32
2018-02-16T01:53:34.313Z,4.32
2018-02-16T01:54:00.415Z,4.32
2018-02-16T01:54:26.516Z,4.32
2018-02-16T01:54:52.609Z,4.3
2018-02-16T01:55:18.709Z,4.22
2018-02-16T01:55:44.815Z,4.28
2018-02-16T01:56:10.914Z,4.3
2018-02-16T01:56:37.015Z,4.22
2018-02-16T01:57:03.113Z,4.4
2018-02-16T01:57:29.208Z,4.35
2018-02-16T01:57:55.312Z,4.31
2018-02-16T01:58:21.402Z,4.32
2018-02-16T01:58:47.505Z,4.38
2018-02-16T01:59:13.621Z,4.4
2018-02-16T01:59:39.723Z,4.4
2018-02-16T02:00:05.820Z,4.5
2018-02-16T02:00:31.924Z,4.4
2018-02-16T02:00:58.034Z,4.45
2018-02-16T02:01:24.136Z,4.49
2018-02-16T02:01:50.239Z,4.41
2018-02-16T02:02:16.350Z,4.38
2018-02-16T02:02:42.454Z,4.48
2018-02-16T02:03:08.552Z,4.49
2018-02-16T02:03:34.651Z,4.38
2018-02-16T02:04:00.755Z,4.38
2018-02-16T02:04:26.851Z,4.32
2018-02-16T02:04:52.954Z,4.32
2018-02-16T02:05:19.054Z,4.3
2018-02-16T02:05:45.152Z,4.38
2018-02-16T02:06:11.254Z,4.3
2018-02-16T02:06:37.351Z,4.35
2018-02-16T02:07:03.455Z,4.37
2018-02-16T02:07:29.550Z,4.35
2018-02-16T02:07:55.650Z,4.34
2018-02-16T02:08:21.753Z,4.34
2018-02-16T02:08:47.854Z,4.22
2018-02-16T02:09:13.965Z,4.22
2018-02-16T02:09:40.072Z,4.19
2018-02-16T02:10:06.168Z,4.23
2018-02-16T02:10:32.263Z,4.16
2018-02-16T02:10:58.368Z,4.24
2018-02-16T02:11:24.461Z,4.2
2018-02-16T02:11:50.565Z,4.19
2018-02-16T02:12:16.661Z,4.34
2018-02-16T02:12:42.764Z,4.26
2018-02-16T02:13:08.863Z,4.2
2018-02-16T02:13:34.963Z,4.19
2018-02-16T02:14:01.055Z,4.2
2018-02-16T02:14:27.163Z,4.22
2018-02-16T02:14:53.263Z,4.28
2018-02-16T02:15:19.375Z,4.17
2018-02-16T02:15:45.475Z,4.23
2018-02-16T02:16:11.572Z,4.19
2018-02-16T02:16:37.666Z,4.2
2018-02-16T02:17:03.768Z,4.17
2018-02-16T02:17:29.864Z,4.22
2018-02-16T02:17:55.971Z,4.31
2018-02-16T02:18:22.067Z,4.22
2018-02-16T02:18:48.171Z,4.2
2018-02-16T02:19:14.268Z,4.23
2018-02-16T02:19:40.367Z,4.28
2018-02-16T02:20:06.471Z,4.31
2018-02-16T02:20:32.566Z,4.35
2018-02-16T02:20:58.664Z,4.41
2018-02-16T02:21:24.767Z,4.4
2018-02-16T02:21:50.868Z,4.38
2018-02-16T02:22:16.963Z,4.38
2018-02-16T02:22:43.067Z,4.28
2018-02-16T02:23:09.163Z,4.38
2018-02-16T02:23:35.264Z,4.34
2018-02-16T02:24:01.374Z,4.4
2018-02-16T02:24:27.481Z,4.41
2018-02-16T02:24:53.569Z,4.32
2018-02-16T02:25:19.672Z,4.37
2018-02-16T02:25:45.769Z,4.26
2018-02-16T02:26:11.880Z,4.42
2018-02-16T02:26:37.976Z,4.4
2018-02-16T02:27:04.073Z,4.41
2018-02-16T02:27:30.168Z,4.32
2018-02-16T02:27:56.268Z,4.41
2018-02-16T02:28:22.387Z,4.32
2018-02-16T02:28:48.492Z,4.35
2018-02-16T02:29:14.587Z,4.31
2018-02-16T02:29:40.704Z,4.31
2018-02-16T02:30:06.801Z,4.34
2018-02-16T02:30:32.898Z,4.28
2018-02-16T02:30:58.998Z,4.24
2018-02-16T02:31:25.097Z,4.26
2018-02-16T02:31:51.215Z,4.3
2018-02-16T02:32:17.338Z,4.26
2018-02-16T02:32:43.434Z,4.28
2018-02-16T02:33:09.541Z,4.34
2018-02-16T02:33:35.633Z,4.37
2018-02-16T02:34:01.757Z,4.35
2018-02-16T02:34:27.893Z,4.26
2018-02-16T02:34:53.948Z,4.23
2018-02-16T02:35:20.051Z,4.2
2018-02-16T02:35:46.151Z,4.16
2018-02-16T02:36:12.245Z,4.17
2018-02-16T02:36:38.346Z,4.14
2018-02-16T02:37:04.447Z,4.19
2018-02-16T02:37:30.551Z,4.19
2018-02-16T02:37:56.663Z,4.22
2018-02-16T02:38:22.759Z,4.23
2018-02-16T02:38:48.860Z,4.34
2018-02-16T02:39:14.954Z,4.28
2018-02-16T02:39:41.079Z,4.2
2018-02-16T02:40:07.177Z,4.16
2018-02-16T02:40:33.273Z,4.16
2018-02-16T02:40:59.375Z,4.19
2018-02-16T02:41:25.471Z,4.14
2018-02-16T02:41:51.576Z,4.19
2018-02-16T02:42:17.674Z,4.16
2018-02-16T02:42:43.781Z,4.22
2018-02-16T02:43:09.875Z,4.13
2018-02-16T02:43:35.971Z,4.2
2018-02-16T02:44:02.075Z,4.22
2018-02-16T02:44:28.173Z,4.31
2018-02-16T02:44:54.269Z,4.2
2018-02-16T02:45:20.365Z,4.19
2018-02-16T02:45:46.474Z,4.23
2018-02-16T02:46:12.594Z,4.34
2018-02-16T02:46:38.697Z,4.24
2018-02-16T02:47:04.794Z,4.19
2018-02-16T02:47:30.896Z,4.23
2018-02-16T02:47:56.998Z,4.35
2018-02-16T02:48:23.105Z,4.34
2018-02-16T02:48:49.224Z,4.23
2018-02-16T02:49:15.335Z,4.23
2018-02-16T02:49:41.431Z,4.23
2018-02-16T02:50:07.530Z,4.31
2018-02-16T02:50:33.631Z,4.4
2018-02-16T02:50:59.744Z,4.26
2018-02-16T02:51:25.848Z,4.37
2018-02-16T02:51:51.971Z,4.37
2018-02-16T02:52:18.065Z,4.24
2018-02-16T02:52:44.169Z,4.35
2018-02-16T02:53:10.264Z,4.45
2018-02-16T02:53:36.368Z,4.35
2018-02-16T02:54:02.468Z,4.49
2018-02-16T02:54:28.567Z,4.44
2018-02-16T02:54:54.666Z,4.42
2018-02-16T02:55:20.760Z,4.48
2018-02-16T02:55:46.855Z,4.45
2018-02-16T02:56:12.957Z,4.48
2018-02-16T02:56:39.060Z,4.48
2018-02-16T02:57:05.174Z,4.45
2018-02-16T02:57:31.270Z,4.56
2018-02-16T02:57:57.372Z,4.55
2018-02-16T02:58:23.470Z,4.53
2018-02-16T02:58:49.572Z,4.48
2018-02-16T02:59:15.693Z,4.55
2018-02-16T02:59:41.789Z,4.45
2018-02-16T03:00:07.889Z,4.45
2018-02-16T03:00:33.986Z,4.5
2018-02-16T03:01:00.094Z,4.45
2018-02-16T03:01:26.211Z,4.37
2018-02-16T03:01:52.312Z,4.37
2018-02-16T03:02:18.426Z,4.31
2018-02-16T03:02:44.528Z,4.41
2018-02-16T03:03:10.634Z,4.31
2018-02-16T03:03:36.726Z,4.41
2018-02-16T03:04:02.844Z,4.42
2018-02-16T03:04:28.944Z,4.42
2018-02-16T03:04:55.044Z,4.4
2018-02-16T03:05:21.160Z,4.37
2018-02-16T03:05:47.256Z,4.2
2018-02-16T03:06:13.354Z,4.32
2018-02-16T03:06:39.461Z,4.37
2018-02-16T03:07:05.551Z,4.26
2018-02-16T03:07:31.653Z,4.2
2018-02-16T03:07:57.759Z,4.24
2018-02-16T03:08:23.855Z,4.26
2018-02-16T03:08:49.954Z,4.22
2018-02-16T03:09:16.049Z,4.32
2018-02-16T03:09:42.153Z,4.34
2018-02-16T03:10:08.251Z,4.24
2018-02-16T03:10:34.359Z,4.38
2018-02-16T03:11:00.458Z,4.3
2018-02-16T03:11:26.563Z,4.28
2018-02-16T03:11:52.658Z,4.32
2018-02-16T03:12:18.753Z,4.31
2018-02-16T03:12:44.858Z,4.4
2018-02-16T03:13:10.949Z,4.32
2018-02-16T03:13:37.054Z,4.31
2018-02-16T03:14:03.149Z,4.32
2018-02-16T03:14:29.244Z,4.32
2018-02-16T03:14:55.348Z,4.28
2018-02-16T03:15:21.448Z,4.19
2018-02-16T03:15:47.552Z,4.32
2018-02-16T03:16:13.653Z,4.37
2018-02-16T03:16:39.758Z,4.35
2018-02-16T03:17:05.851Z,4.34
2018-02-16T03:17:31.986Z,4.37
2018-02-16T03:17:58.080Z,4.44
2018-02-16T03:18:24.184Z,4.49
2018-02-16T03:18:50.278Z,4.32
2018-02-16T03:19:16.390Z,4.41
2018-02-16T03:19:42.495Z,4.4
2018-02-16T03:20:08.593Z,4.44
2018-02-16T03:20:34.697Z,4.42
2018-02-16T03:21:00.798Z,4.42
2018-02-16T03:21:26.895Z,4.35
2018-02-16T03:21:52.993Z,4.31
2018-02-16T03:22:19.112Z,4.23
2018-02-16T03:22:45.210Z,4.17
2018-02-16T03:23:11.313Z,4.22
2018-02-16T03:23:37.416Z,4.2
2018-02-16T03:24:03.509Z,4.19
2018-02-16T03:24:29.609Z,4.22
2018-02-16T03:24:55.709Z,4.24
2018-02-16T03:25:21.810Z,4.1
2018-02-16T03:25:47.913Z,4.06
2018-02-16T03:26:14.009Z,4.12
2018-02-16T03:26:40.109Z,4.01
2018-02-16T03:27:06.215Z,4.06
2018-02-16T03:27:32.312Z,4.12
2018-02-16T03:27:58.413Z,4.19
2018-02-16T03:28:24.534Z,4.13
2018-02-16T03:28:50.626Z,4.16
2018-02-16T03:29:16.731Z,4.22
2018-02-16T03:29:42.835Z,4.17
2018-02-16T03:30:08.939Z,4.19
2018-02-16T03:30:35.051Z,4.13
2018-02-16T03:31:01.156Z,4.13
2018-02-16T03:31:27.256Z,4.19
2018-02-16T03:31:53.350Z,4.17
2018-02-16T03:32:19.456Z,4.3
2018-02-16T03:32:45.564Z,4.35
2018-02-16T03:33:11.667Z,4.34
2018-02-16T03:33:37.762Z,4.32
2018-02-16T03:34:03.860Z,4.23
2018-02-16T03:34:29.955Z,4.28
2018-02-16T03:34:56.058Z,4.2
2018-02-16T03:35:22.161Z,4.17
2018-02-16T03:35:48.260Z,4.24
2018-02-16T03:36:14.358Z,4.1
2018-02-16T03:36:40.477Z,4.19
2018-02-16T03:37:06.574Z,4.16
2018-02-16T03:37:32.676Z,4.12
2018-02-16T03:37:58.773Z,4.23
2018-02-16T03:38:24.868Z,4.2
2018-02-16T03:38:50.970Z,4.17
2018-02-16T03:39:17.062Z,4.24
2018-02-16T03:39:43.163Z,4.28
2018-02-16T03:40:09.265Z,4.23
2018-02-16T03:40:35.376Z,4.32
2018-02-16T03:41:01.471Z,4.22
2018-02-16T03:41:27.575Z,4.16
2018-02-16T03:41:53.669Z,4.2
2018-02-16T03:42:19.791Z,4.2
2018-02-16T03:42:45.931Z,4.17
2018-02-16T03:43:12.009Z,4.19
2018-02-16T03:43:38.111Z,4.19
2018-02-16T03:44:04.207Z,4.08
2018-02-16T03:44:30.304Z,4.17
2018-02-16T03:44:56.406Z,4.2
2018-02-16T03:45:22.510Z,4.17
2018-02-16T03:45:48.624Z,4.1
2018-02-16T03:46:14.725Z,4.13
2018-02-16T03:46:40.832Z,4.14
2018-02-16T03:47:06.941Z,4.23
2018-02-16T03:47:33.045Z,4.2
2018-02-16T03:47:59.140Z,4.28
2018-02-16T03:48:25.244Z,4.32
2018-02-16T03:48:51.341Z,4.28
2018-02-16T03:49:17.436Z,4.16
2018-02-16T03:49:43.531Z,4.13
2018-02-16T03:50:09.632Z,4.06
2018-02-16T03:50:35.735Z,4.06
2018-02-16T03:51:01.828Z,4.13
2018-02-16T03:51:27.925Z,4.16
2018-02-16T03:51:54.035Z,4.16
2018-02-16T03:52:20.125Z,4.13
2018-02-16T03:52:46.230Z,4.16
2018-02-16T03:53:12.330Z,4.12
2018-02-16T03:53:38.428Z,4.05
2018-02-16T03:54:04.527Z,4.16
2018-02-16T03:54:30.629Z,4.19
2018-02-16T03:54:56.750Z,4.28
2018-02-16T03:55:22.845Z,4.22
2018-02-16T03:55:48.943Z,4.2
2018-02-16T03:56:15.061Z,4.26
2018-02-16T03:56:41.176Z,4.31
2018-02-16T03:57:07.272Z,4.24
2018-02-16T03:57:33.383Z,4.24
2018-02-16T03:57:59.486Z,4.26
2018-02-16T03:58:25.579Z,4.23
2018-02-16T03:58:51.687Z,4.32
2018-02-16T03:59:17.806Z,4.22
2018-02-16T03:59:43.911Z,4.24
2018-02-16T04:00:10.013Z,4.23
2018-02-16T04:00:36.107Z,4.19
2018-02-16T04:01:02.220Z,4.23
2018-02-16T04:01:28.324Z,4.22
2018-02-16T04:01:54.429Z,4.17
2018-02-16T04:02:20.521Z,4.23
2018-02-16T04:02:46.625Z,4.26
2018-02-16T04:03:12.721Z,4.32
2018-02-16T04:03:38.820Z,4.28
2018-02-16T04:04:04.922Z,4.22
2018-02-16T04:04:31.046Z,4.32
2018-02-16T04:04:57.139Z,4.3
2018-02-16T04:05:23.238Z,4.38
2018-02-16T04:05:49.341Z,4.41
2018-02-16T04:06:15.455Z,4.35
2018-02-16T04:06:41.559Z,4.37
2018-02-16T04:07:07.653Z,4.31
2018-02-16T04:07:33.757Z,4.32
2018-02-16T04:07:59.857Z,4.32
2018-02-16T04:08:25.972Z,4.34
2018-02-16T04:08:52.067Z,4.34
2018-02-16T04:09:18.171Z,4.35
2018-02-16T04:09:44.264Z,4.4
2018-02-16T04:10:10.382Z,4.34
2018-02-16T04:10:36.482Z,4.34
2018-02-16T04:11:02.582Z,4.4
2018-02-16T04:11:28.682Z,4.32
2018-02-16T04:11:54.785Z,4.42
2018-02-16T04:12:20.884Z,4.34
2018-02-16T04:12:46.996Z,4.37
2018-02-16T04:13:13.100Z,4.35
2018-02-16T04:13:39.199Z,4.37
2018-02-16T04:14:05.301Z,4.35
2018-02-16T04:14:31.393Z,4.35
2018-02-16T04:14:57.507Z,4.37
2018-02-16T04:15:23.610Z,4.32
2018-02-16T04:15:49.718Z,4.26
2018-02-16T04:16:15.812Z,4.3
2018-02-16T04:16:41.909Z,4.26
2018-02-16T04:17:08.012Z,4.35
2018-02-16T04:17:34.110Z,4.34
2018-02-16T04:18:00.231Z,4.32
2018-02-16T04:18:26.326Z,4.32
2018-02-16T04:18:52.426Z,4.31
2018-02-16T04:19:18.520Z,4.23
2018-02-16T04:19:44.627Z,4.23
2018-02-16T04:20:10.726Z,4.32
2018-02-16T04:20:36.840Z,4.32
2018-02-16T04:21:02.938Z,4.34
2018-02-16T04:21:29.043Z,4.35
2018-02-16T04:21:55.142Z,4.38
2018-02-16T04:22:21.247Z,4.45
2018-02-16T04:22:47.339Z,4.4
2018-02-16T04:23:13.454Z,4.32
2018-02-16T04:23:39.552Z,4.3
2018-02-16T04:24:05.656Z,4.38
2018-02-16T04:24:31.770Z,4.28
2018-02-16T04:24:57.868Z,4.32
2018-02-16T04:25:23.965Z,4.35
2018-02-16T04:25:50.066Z,4.38
2018-02-16T04:26:16.164Z,4.41
2018-02-16T04:26:42.266Z,4.44
2018-02-16T04:27:08.362Z,4.31
2018-02-16T04:27:34.463Z,4.34
2018-02-16T04:28:00.560Z,4.24
2018-02-16T04:28:26.658Z,4.34
2018-02-16T04:28:52.756Z,4.32
2018-02-16T04:29:18.859Z,4.38
2018-02-16T04:29:44.955Z,4.32
2018-02-16T04:30:11.057Z,4.31
2018-02-16T04:30:37.153Z,4.32
2018-02-16T04:31:03.256Z,4.34
2018-02-16T04:31:29.351Z,4.37
2018-02-16T04:31:55.455Z,4.48
2018-02-16T04:32:21.576Z,4.35
2018-02-16T04:32:47.668Z,4.38
2018-02-16T04:33:13.767Z,4.41
2018-02-16T04:33:39.872Z,4.45
2018-02-16T04:34:05.975Z,4.5
2018-02-16T04:34:32.070Z,4.35
2018-02-16T04:34:58.173Z,4.34
2018-02-16T04:35:24.268Z,4.26
2018-02-16T04:35:50.373Z,4.3
2018-02-16T04:36:16.475Z,4.26
2018-02-16T04:36:42.568Z,4.3
2018-02-16T04:37:08.670Z,4.3
2018-02-16T04:37:34.765Z,4.4
2018-02-16T04:38:00.870Z,4.34
2018-02-16T04:38:26.966Z,4.31
2018-02-16T04:38:53.063Z,4.42
2018-02-16T04:39:19.162Z,4.35
2018-02-16T04:39:45.269Z,4.26
2018-02-16T04:40:11.373Z,4.23
2018-02-16T04:40:37.487Z,4.3
2018-02-16T04:41:03.583Z,4.17
2018-02-16T04:41:29.680Z,4.26
2018-02-16T04:41:55.776Z,4.22
2018-02-16T04:42:21.877Z,4.26
2018-02-16T04:42:47.973Z,4.23
2018-02-16T04:43:14.073Z,4.28
2018-02-16T04:43:40.169Z,4.22
2018-02-16T04:44:06.291Z,4.37
2018-02-16T04:44:32.385Z,4.26
2018-02-16T04:44:58.491Z,4.32
2018-02-16T04:45:24.614Z,4.32
2018-02-16T04:45:50.685Z,4.24
2018-02-16T04:46:16.805Z,4.35
2018-02-16T04:46:42.908Z,4.34
2018-02-16T04:47:09.003Z,4.35
2018-02-16T04:47:35.106Z,4.32
2018-02-16T04:48:01.229Z,4.38
2018-02-16T04:48:27.323Z,4.38
2018-02-16T04:48:53.427Z,4.32
2018-02-16T04:49:19.529Z,4.34
2018-02-16T04:49:45.638Z,4.37
2018-02-16T04:50:11.734Z,4.38
2018-02-16T04:50:37.831Z,4.32
2018-02-16T04:51:03.935Z,4.34
2018-02-16T04:51:30.037Z,4.34
2018-02-16T04:51:56.132Z,4.34
2018-02-16T04:52:22.230Z,4.32
2018-02-16T04:52:48.332Z,4.35
2018-02-16T04:53:14.434Z,4.4
2018-02-16T04:53:40.527Z,4.37
2018-02-16T04:54:06.630Z,4.2
2018-02-16T04:54:32.724Z,4.19
2018-02-16T04:54:58.822Z,4.17
2018-02-16T04:55:24.924Z,4.17
2018-02-16T04:55:51.022Z,4.14
2018-02-16T04:56:17.125Z,4.16
2018-02-16T04:56:43.219Z,4.1
2018-02-16T04:57:09.320Z,4.12
2018-02-16T04:57:35.423Z,4.13
2018-02-16T04:58:01.519Z,4.06
2018-02-16T04:58:27.615Z,4.16
2018-02-16T04:58:53.715Z,4.19
2018-02-16T04:59:19.828Z,4.19
2018-02-16T04:59:45.928Z,4.19
2018-02-16T05:00:12.046Z,4.2
2018-02-16T05:00:38.146Z,4.2
2018-02-16T05:01:04.246Z,4.17
2018-02-16T05:01:30.348Z,4.19
2018-02-16T05:01:56.458Z,4.23
2018-02-16T05:02:22.555Z,4.17
2018-02-16T05:02:48.677Z,4.2
2018-02-16T05:03:14.777Z,4.16
2018-02-16T05:03:40.876Z,4.17
2018-02-16T05:04:06.972Z,4.2
2018-02-16T05:04:33.067Z,4.3
2018-02-16T05:04:59.178Z,4.17
2018-02-16T05:05:25.277Z,4.34
2018-02-16T05:05:51.373Z,4.2
2018-02-16T05:06:17.473Z,4.23
2018-02-16T05:06:43.570Z,4.3
2018-02-16T05:07:09.667Z,4.24
2018-02-16T05:07:35.767Z,4.24
2018-02-16T05:08:01.872Z,4.37
2018-02-16T05:08:27.967Z,4.28
2018-02-16T05:08:54.071Z,4.26
2018-02-16T05:09:20.180Z,4.34
2018-02-16T05:09:46.296Z,4.17
2018-02-16T05:10:12.395Z,4.2
2018-02-16T05:10:38.489Z,4.2
2018-02-16T05:11:04.586Z,4.2
2018-02-16T05:11:30.687Z,4.2
2018-02-16T05:11:56.780Z,4.19
2018-02-16T05:12:22.887Z,4.16
2018-02-16T05:12:48.987Z,4.04
2018-02-16T05:13:15.081Z,4.06
2018-02-16T05:13:41.180Z,4.08
2018-02-16T05:14:07.284Z,4.06
2018-02-16T05:14:33.385Z,3.95
2018-02-16T05:14:59.482Z,3.98
2018-02-16T05:15:25.584Z,3.98
2018-02-16T05:15:51.691Z,3.98
2018-02-16T05:16:17.793Z,3.96
2018-02-16T05:16:43.892Z,3.95
2018-02-16T05:17:09.993Z,3.92
2018-02-16T05:17:36.098Z,3.87
2018-02-16T05:18:02.189Z,3.92
2018-02-16T05:18:28.288Z,3.88
2018-02-16T05:18:54.393Z,3.95
2018-02-16T05:19:20.523Z,3.92
2018-02-16T05:19:46.620Z,3.74
2018-02-16T05:20:12.724Z,3.81
2018-02-16T05:20:38.824Z,3.88
2018-02-16T05:21:04.926Z,3.87
2018-02-16T05:21:31.022Z,3.84
2018-02-16T05:21:57.125Z,3.77
2018-02-16T05:22:23.220Z,3.69
2018-02-16T05:22:49.316Z,3.78
2018-02-16T05:23:15.421Z,3.84
2018-02-16T05:23:41.515Z,3.81
2018-02-16T05:24:07.618Z,3.84
2018-02-16T05:24:33.715Z,3.86
2018-02-16T05:24:59.818Z,3.81
2018-02-16T05:25:25.925Z,3.87
2018-02-16T05:25:52.017Z,3.91
2018-02-16T05:26:18.120Z,3.86
2018-02-16T05:26:44.216Z,3.78
2018-02-16T05:27:10.320Z,3.78
2018-02-16T05:27:36.419Z,3.8
2018-02-16T05:28:02.515Z,3.84
2018-02-16T05:28:28.621Z,3.78
2018-02-16T05:28:54.715Z,3.8
2018-02-16T05:29:20.818Z,3.86
2018-02-16T05:29:46.917Z,3.77
2018-02-16T05:30:13.015Z,3.8
2018-02-16T05:30:39.118Z,3.88
2018-02-16T05:31:05.212Z,3.81
2018-02-16T05:31:31.330Z,3.83
2018-02-16T05:31:57.428Z,3.76
2018-02-16T05:32:23.527Z,3.76
2018-02-16T05:32:49.630Z,3.76
2018-02-16T05:33:15.727Z,3.84
2018-02-16T05:33:41.826Z,3.86
2018-02-16T05:34:07.931Z,3.83
2018-02-16T05:34:34.024Z,3.83
2018-02-16T05:35:00.123Z,3.78
2018-02-16T05:35:26.223Z,3.81
2018-02-16T05:35:52.325Z,3.83
2018-02-16T05:36:18.432Z,3.81
2018-02-16T05:36:44.540Z,3.87
2018-02-16T05:37:10.660Z,3.91
2018-02-16T05:37:36.759Z,3.94
2018-02-16T05:38:02.859Z,4.01
2018-02-16T05:38:28.957Z,3.92
2018-02-16T05:38:55.060Z,3.99
2018-02-16T05:39:21.162Z,3.98
2018-02-16T05:39:47.272Z,3.98
2018-02-16T05:40:13.388Z,3.98
2018-02-16T05:40:39.489Z,3.84
2018-02-16T05:41:05.583Z,3.86
2018-02-16T05:41:31.680Z,3.83
2018-02-16T05:41:57.780Z,3.86
2018-02-16T05:42:23.876Z,3.76
2018-02-16T05:42:49.979Z,3.86
2018-02-16T05:43:16.078Z,3.8
2018-02-16T05:43:42.179Z,3.74
2018-02-16T05:44:08.273Z,3.78
2018-02-16T05:44:34.378Z,3.84
2018-02-16T05:45:00.474Z,3.87
2018-02-16T05:45:26.570Z,3.94
2018-02-16T05:45:52.670Z,3.92
2018-02-16T05:46:18.773Z,3.88
2018-02-16T05:46:44.870Z,3.83
2018-02-16T05:47:10.967Z,3.86
2018-02-16T05:47:37.070Z,3.86
2018-02-16T05:48:03.166Z,3.91
2018-02-16T05:48:29.274Z,3.96
2018-02-16T05:48:55.384Z,3.94